Time;durP1;ratioP1;P1;durP2;ratioP2;P2;SDS_P1;SDS_P2;PMS_P1;PMS_P2;Temp;Humidity;BMP_temperature;BMP_pressure;BME280_temperature;BME280_humidity;BME280_pressure;Samples;Min_cycle;Max_cycle;Signal;HPM_P1;HPM_P2
2023/05/17 00:02:19;;;;;;;9.73;2.30;;;;;;;8.54;61.04;101155.03;5084675;28;20541;-72
2023/05/17 00:04:46;;;;;;;12.77;2.17;;;;;;;8.53;61.79;101148.94;5085810;28;20044;-73
2023/05/17 00:07:13;;;;;;;13.45;2.15;;;;;;;8.49;62.44;101144.72;5085133;28;20055;-72
2023/05/17 00:09:40;;;;;;;13.50;2.67;;;;;;;8.49;62.53;101143.88;5082463;28;20056;-74
2023/05/17 00:12:08;;;;;;;10.13;2.53;;;;;;;8.47;63.19;101140.47;5087704;28;20090;-72
2023/05/17 00:14:36;;;;;;;10.93;2.88;;;;;;;8.47;63.41;101141.34;5085736;28;20139;-73
2023/05/17 00:17:04;;;;;;;7.95;2.47;;;;;;;8.41;64.64;101148.59;5086174;28;20130;-73
2023/05/17 00:19:31;;;;;;;14.88;3.42;;;;;;;8.35;66.12;101149.66;5085446;28;20171;-73
2023/05/17 00:21:59;;;;;;;10.60;2.65;;;;;;;8.35;66.17;101149.66;5088233;28;20183;-73
2023/05/17 00:24:26;;;;;;;15.88;3.55;;;;;;;8.32;68.23;101145.38;5086169;28;20056;-73
2023/05/17 00:26:53;;;;;;;10.02;3.67;;;;;;;8.26;68.39;101143.03;5069678;28;20101;-74
2023/05/17 00:29:20;;;;;;;10.73;3.40;;;;;;;8.28;68.83;101145.59;5085936;28;20195;-74
2023/05/17 00:31:47;;;;;;;14.88;3.97;;;;;;;8.22;69.98;101151.09;5084460;28;20048;-74
2023/05/17 00:34:15;;;;;;;11.10;2.88;;;;;;;8.18;69.71;101147.72;5085875;28;20051;-72
2023/05/17 00:36:42;;;;;;;13.45;3.72;;;;;;;8.17;70.59;101151.28;5080350;28;20036;-73
2023/05/17 00:39:09;;;;;;;12.75;3.63;;;;;;;8.12;71.44;101151.47;5086119;28;20048;-74
2023/05/17 00:41:37;;;;;;;16.20;3.45;;;;;;;8.10;71.23;101157.66;5084168;28;20080;-71
2023/05/17 00:44:04;;;;;;;10.73;3.90;;;;;;;8.11;71.74;101149.75;5085228;28;20048;-73
2023/05/17 00:46:32;;;;;;;16.63;3.10;;;;;;;8.08;72.90;101149.03;5082965;28;20135;-73
2023/05/17 00:48:59;;;;;;;9.95;3.63;;;;;;;8.06;73.21;101153.47;5083526;28;20052;-74
2023/05/17 00:51:27;;;;;;;16.50;4.07;;;;;;;8.00;74.72;101151.94;5052428;28;20052;-72
2023/05/17 00:53:54;;;;;;;17.35;4.18;;;;;;;8.00;75.10;101149.31;5070185;28;20689;-73
2023/05/17 00:56:22;;;;;;;13.77;4.00;;;;;;;8.01;75.40;101153.66;5086644;28;20131;-74
2023/05/17 00:58:50;;;;;;;18.08;4.20;;;;;;;7.97;75.97;101152.09;5085516;28;20048;-74
2023/05/17 01:01:17;;;;;;;18.65;4.97;;;;;;;7.96;76.70;101149.50;5086803;28;20663;-74
2023/05/17 01:03:44;;;;;;;19.50;4.07;;;;;;;7.92;76.47;101146.16;5073058;28;20118;-73
2023/05/17 01:06:13;;;;;;;10.68;4.00;;;;;;;7.92;76.80;101143.53;5089231;28;20066;-74
2023/05/17 01:08:41;;;;;;;19.67;4.82;;;;;;;7.95;77.84;101158.28;5082844;28;20523;-74
2023/05/17 01:11:22;;;;;;;13.60;3.38;;;;;;;7.89;77.61;101155.94;5084698;28;20080;-74
2023/05/17 01:14:01;;;;;;;11.10;3.90;;;;;;;7.89;78.70;101148.06;5069554;28;20048;-74
2023/05/17 01:16:43;;;;;;;9.07;3.63;;;;;;;7.83;79.16;101157.88;5061326;28;20122;-73
2023/05/17 01:19:35;;;;;;;15.05;3.95;;;;;;;7.79;79.38;101151.03;5072423;28;20131;-73
2023/05/17 01:22:08;;;;;;;19.10;4.72;;;;;;;7.77;80.35;101149.38;5083364;28;20135;-71
2023/05/17 01:24:52;;;;;;;17.63;4.32;;;;;;;7.74;80.57;101154.72;5083065;28;20126;-73
2023/05/17 01:27:20;;;;;;;15.65;4.78;;;;;;;7.75;80.31;101161.72;5085748;28;20090;-72
2023/05/17 01:29:48;;;;;;;18.48;4.38;;;;;;;7.72;80.87;101160.03;5080610;28;20048;-73
2023/05/17 01:32:16;;;;;;;18.88;4.82;;;;;;;7.74;81.74;101167.84;5081922;28;20038;-72
2023/05/17 01:34:43;;;;;;;15.52;3.92;;;;;;;7.72;81.66;101172.28;5073660;28;20052;-72
2023/05/17 01:37:11;;;;;;;13.48;4.13;;;;;;;7.70;81.75;101171.47;5104546;28;20638;-72
2023/05/17 01:39:39;;;;;;;15.32;4.05;;;;;;;7.64;83.03;101166.50;5065279;28;20387;-74
2023/05/17 01:42:21;;;;;;;11.82;4.07;;;;;;;7.61;82.57;101180.56;5086189;28;20567;-74
2023/05/17 01:45:11;;;;;;;18.98;4.32;;;;;;;7.57;83.27;101181.59;5086193;28;20124;-73
2023/05/17 01:47:44;;;;;;;22.85;4.72;;;;;;;7.58;84.19;101183.31;5046323;28;20087;-73
2023/05/17 01:50:14;;;;;;;16.98;4.72;;;;;;;7.57;83.78;101177.22;5083057;28;20623;-72
2023/05/17 01:52:51;;;;;;;13.88;3.97;;;;;;;7.55;84.10;101179.03;5079088;28;20051;-73
2023/05/17 01:55:25;;;;;;;18.05;4.50;;;;;;;7.52;84.44;101178.28;5077413;28;20508;-72
2023/05/17 01:57:58;;;;;;;17.10;4.72;;;;;;;7.53;84.40;101185.25;5088094;28;20602;-73
2023/05/17 02:00:30;;;;;;;19.95;5.20;;;;;;;7.51;84.96;101180.03;5055799;28;20440;-74
2023/05/17 02:02:57;;;;;;;12.65;4.30;;;;;;;7.55;85.74;101189.50;5075831;28;20053;-73
2023/05/17 02:05:24;;;;;;;19.88;5.18;;;;;;;7.53;86.07;101182.63;5081456;28;20139;-74
2023/05/17 02:07:52;;;;;;;18.27;5.50;;;;;;;7.50;86.52;101186.19;5069141;28;20140;-73
2023/05/17 02:10:19;;;;;;;16.38;4.63;;;;;;;7.51;86.03;101176.56;5085241;28;20062;-72
2023/05/17 02:12:46;;;;;;;20.25;4.72;;;;;;;7.49;87.11;101181.03;5087127;28;20051;-72
2023/05/17 02:15:17;;;;;;;17.30;4.32;;;;;;;7.46;87.02;101174.13;5087065;28;20075;-72
2023/05/17 02:17:44;;;;;;;17.55;4.97;;;;;;;7.45;87.28;101168.94;5088750;28;20536;-72
2023/05/17 02:20:12;;;;;;;12.75;4.00;;;;;;;7.47;87.66;101183.69;5088210;28;20052;-73
2023/05/17 02:22:39;;;;;;;14.55;5.03;;;;;;;7.48;87.45;101180.19;5083788;28;20044;-72
2023/05/17 02:25:07;;;;;;;14.75;5.00;;;;;;;7.51;87.30;101185.28;5086588;28;20050;-73
2023/05/17 02:27:35;;;;;;;18.35;5.03;;;;;;;7.52;87.44;101170.41;5081258;28;20082;-73
2023/05/17 02:30:04;;;;;;;19.55;5.90;;;;;;;7.55;87.81;101167.69;5080762;28;20052;-74
2023/05/17 02:32:31;;;;;;;21.25;5.35;;;;;;;7.61;87.34;101170.09;5065021;28;20047;-74
2023/05/17 02:34:59;;;;;;;21.27;5.13;;;;;;;7.62;87.47;101166.56;5089982;28;20123;-74
2023/05/17 02:37:26;;;;;;;23.75;4.55;;;;;;;7.63;87.18;101160.41;5092277;28;20098;-72
2023/05/17 02:39:54;;;;;;;18.98;5.57;;;;;;;7.67;87.73;101161.13;5088000;28;20059;-74
2023/05/17 02:42:21;;;;;;;20.30;5.47;;;;;;;7.68;87.48;101161.06;5085942;28;20135;-73
2023/05/17 02:44:51;;;;;;;23.98;5.63;;;;;;;7.73;87.84;101168.75;5090036;28;20147;-73
2023/05/17 02:47:22;;;;;;;17.90;5.00;;;;;;;7.76;87.39;101181.75;5087092;28;20043;-72
2023/05/17 02:49:49;;;;;;;21.27;5.60;;;;;;;7.81;87.45;101166.69;5080744;28;20142;-76
2023/05/17 02:52:17;;;;;;;17.38;4.55;;;;;;;7.83;87.39;101164.84;5083245;28;20557;-73
2023/05/17 02:54:44;;;;;;;13.50;4.45;;;;;;;7.86;87.27;101170.84;5086682;28;20123;-73
2023/05/17 02:57:11;;;;;;;17.92;5.07;;;;;;;7.89;87.19;101169.88;5087193;28;20075;-74
2023/05/17 02:59:38;;;;;;;17.80;5.95;;;;;;;7.87;86.98;101169.06;5079076;28;20626;-74
2023/05/17 03:02:06;;;;;;;17.92;5.18;;;;;;;7.90;87.17;101168.97;5084137;28;20083;-72
2023/05/17 03:04:33;;;;;;;17.38;5.50;;;;;;;7.94;87.26;101177.56;5079477;28;20131;-74
2023/05/17 03:07:00;;;;;;;13.52;4.43;;;;;;;7.97;87.15;101172.19;5088033;28;20062;-73
2023/05/17 03:09:29;;;;;;;20.88;4.90;;;;;;;7.98;87.57;101177.38;5070957;28;20094;-73
2023/05/17 03:11:57;;;;;;;18.83;6.07;;;;;;;8.02;87.64;101192.09;5084427;28;20044;-73
2023/05/17 03:14:24;;;;;;;16.65;5.00;;;;;;;8.04;86.99;101181.53;5086748;28;20441;-74
2023/05/17 03:16:51;;;;;;;19.98;5.32;;;;;;;8.03;87.39;101188.53;5088699;28;20455;-73
2023/05/17 03:19:19;;;;;;;21.05;5.35;;;;;;;8.01;87.22;101200.00;5090386;28;20063;-72
2023/05/17 03:21:46;;;;;;;12.07;4.70;;;;;;;7.99;87.12;101189.56;5085472;28;20625;-72
2023/05/17 03:24:13;;;;;;;17.98;5.97;;;;;;;7.98;87.51;101189.66;5101913;28;20062;-73
2023/05/17 03:26:41;;;;;;;18.23;5.03;;;;;;;7.94;87.05;101193.28;5086461;28;20051;-73
2023/05/17 03:29:08;;;;;;;12.00;4.47;;;;;;;7.94;87.59;101201.16;5087226;28;20071;-75
2023/05/17 03:31:35;;;;;;;17.08;4.47;;;;;;;7.91;87.95;101196.03;5084282;28;20135;-71
2023/05/17 03:34:02;;;;;;;15.23;4.97;;;;;;;7.91;87.86;101198.66;5084672;28;20052;-72
2023/05/17 03:36:33;;;;;;;18.50;5.00;;;;;;;7.89;88.43;101197.88;5082201;28;20071;-72
2023/05/17 03:39:00;;;;;;;21.05;5.25;;;;;;;7.92;88.52;101202.97;5080749;28;20127;-72
2023/05/17 03:41:27;;;;;;;14.63;5.18;;;;;;;7.93;87.88;101197.69;5084932;28;20127;-72
2023/05/17 03:43:55;;;;;;;20.15;5.28;;;;;;;7.96;87.84;101212.44;5086774;28;20285;-73
2023/05/17 03:46:22;;;;;;;16.52;5.10;;;;;;;7.97;87.60;101214.13;5080583;28;20123;-72
2023/05/17 03:48:50;;;;;;;20.65;5.43;;;;;;;8.03;87.86;101213.91;5086686;28;20051;-73
2023/05/17 03:51:17;;;;;;;16.38;5.13;;;;;;;8.04;87.90;101220.84;5079324;28;20147;-75
2023/05/17 03:53:44;;;;;;;20.70;5.45;;;;;;;8.06;87.46;101227.75;5086652;28;20139;-73
2023/05/17 03:56:12;;;;;;;21.00;5.40;;;;;;;8.05;87.91;101215.53;5086960;28;20163;-73
2023/05/17 03:58:39;;;;;;;15.23;4.88;;;;;;;8.05;87.91;101226.03;5086712;28;20054;-73
2023/05/17 04:01:06;;;;;;;23.45;5.63;;;;;;;8.04;87.61;101229.56;5084963;28;20062;-73
2023/05/17 04:03:33;;;;;;;18.73;4.63;;;;;;;8.02;88.49;101227.94;5084121;28;20505;-72
2023/05/17 04:06:05;;;;;;;20.58;5.80;;;;;;;7.98;88.64;101229.81;5079262;28;20614;-72
2023/05/17 04:08:33;;;;;;;15.43;5.22;;;;;;;8.00;88.84;101250.72;5082633;28;20708;-73
2023/05/17 04:11:09;;;;;;;18.67;5.22;;;;;;;7.98;88.61;101250.78;5085159;28;20044;-72
2023/05/17 04:13:36;;;;;;;21.50;6.00;;;;;;;7.98;88.37;101253.41;5082692;28;20194;-72
2023/05/17 04:16:04;;;;;;;14.85;5.28;;;;;;;7.95;89.22;101250.91;5077459;28;20504;-73
2023/05/17 04:18:34;;;;;;;23.95;5.68;;;;;;;7.94;88.60;101243.09;5087094;28;20430;-72
2023/05/17 04:21:02;;;;;;;17.52;5.80;;;;;;;7.97;89.08;101253.47;5080456;28;20077;-71
2023/05/17 04:23:31;;;;;;;28.90;6.88;;;;;;;8.01;88.49;101257.66;5082807;28;20059;-71
2023/05/17 04:25:58;;;;;;;24.73;6.60;;;;;;;8.03;88.74;101255.88;5082457;28;20056;-71
2023/05/17 04:28:26;;;;;;;23.33;6.05;;;;;;;7.99;88.63;101249.03;5081918;28;20063;-72
2023/05/17 04:30:54;;;;;;;15.00;5.88;;;;;;;8.00;88.28;101262.06;5081920;28;20068;-73
2023/05/17 04:33:22;;;;;;;20.00;5.63;;;;;;;8.02;88.77;101262.88;5057413;28;20054;-74
2023/05/17 04:35:53;;;;;;;22.67;6.10;;;;;;;8.05;89.37;101261.88;5077319;28;20151;-72
2023/05/17 04:38:20;;;;;;;15.68;6.18;;;;;;;8.05;89.02;101270.59;5081105;28;20490;-74
2023/05/17 04:40:48;;;;;;;23.67;5.32;;;;;;;8.04;88.31;101274.16;5078872;28;20127;-74
2023/05/17 04:43:15;;;;;;;21.30;6.30;;;;;;;8.08;88.54;101269.66;5083201;28;20140;-72
2023/05/17 04:45:42;;;;;;;21.02;6.68;;;;;;;8.07;88.78;101274.03;5082287;28;20575;-72
2023/05/17 04:48:10;;;;;;;15.95;5.90;;;;;;;8.16;88.26;101277.22;5080837;28;20135;-73
2023/05/17 04:50:37;;;;;;;22.33;6.13;;;;;;;8.26;87.81;101274.19;5066050;28;20105;-72
2023/05/17 04:53:05;;;;;;;23.67;5.97;;;;;;;8.29;86.88;101292.44;5081297;28;20143;-71
2023/05/17 04:55:32;;;;;;;24.92;6.78;;;;;;;8.31;86.50;101298.47;5084912;28;20052;-71
2023/05/17 04:57:59;;;;;;;20.60;6.38;;;;;;;8.31;87.54;101295.00;5068551;28;20063;-72
2023/05/17 05:00:26;;;;;;;18.25;5.65;;;;;;;8.32;86.93;101310.66;5085297;28;21562;-73
2023/05/17 05:02:57;;;;;;;26.77;5.30;;;;;;;8.34;86.65;101305.38;5082230;28;20514;-73
2023/05/17 05:05:26;;;;;;;18.85;5.97;;;;;;;8.36;85.84;101312.28;5085004;28;20417;-73
2023/05/17 05:07:55;;;;;;;26.27;5.75;;;;;;;8.30;85.68;101317.75;5079582;28;20484;-72
2023/05/17 05:10:22;;;;;;;21.15;6.15;;;;;;;8.30;86.52;101320.38;5084270;28;20540;-73
2023/05/17 05:12:50;;;;;;;20.92;6.07;;;;;;;8.37;85.66;101323.63;5083999;28;20465;-73
2023/05/17 05:15:17;;;;;;;13.27;4.82;;;;;;;8.43;85.82;101325.19;5071691;28;20141;-73
2023/05/17 05:17:45;;;;;;;22.55;5.55;;;;;;;8.47;84.52;101327.63;5082216;28;20131;-73
2023/05/17 05:20:12;;;;;;;20.40;5.25;;;;;;;8.48;84.09;101336.34;5080299;28;20055;-74
2023/05/17 05:22:40;;;;;;;13.40;4.20;;;;;;;8.52;83.98;101338.81;5081290;28;20519;-74
2023/05/17 05:25:08;;;;;;;18.50;4.65;;;;;;;8.56;83.33;101329.91;5078473;28;20051;-72
2023/05/17 05:27:35;;;;;;;21.23;5.90;;;;;;;8.60;83.21;101330.59;5082354;28;20143;-73
2023/05/17 05:30:03;;;;;;;13.63;3.75;;;;;;;8.67;82.59;101329.47;5068040;28;20123;-72
2023/05/17 05:32:30;;;;;;;20.38;5.28;;;;;;;8.74;81.33;101333.56;5070867;28;20190;-72
2023/05/17 05:34:58;;;;;;;14.95;3.92;;;;;;;8.83;79.90;101333.19;5075136;28;20047;-71
2023/05/17 05:37:25;;;;;;;23.02;4.93;;;;;;;8.87;79.06;101339.16;5076058;28;20059;-76
2023/05/17 05:40:02;;;;;;;12.70;4.07;;;;;;;9.05;78.54;101348.06;5080873;28;20482;-72
2023/05/17 05:42:29;;;;;;;13.95;3.95;;;;;;;9.42;78.63;101347.41;5043968;28;20070;-67
2023/05/17 05:44:58;;;;;;;23.27;5.70;;;;;;;9.74;77.89;101358.28;5080764;28;20041;-67
2023/05/17 05:47:25;;;;;;;15.73;4.45;;;;;;;9.86;77.17;101365.63;5080392;28;20155;-67
2023/05/17 05:49:52;;;;;;;15.80;4.43;;;;;;;10.00;76.28;101375.56;5071268;28;20079;-67
2023/05/17 05:52:20;;;;;;;22.33;5.93;;;;;;;9.86;75.22;101365.63;5075504;28;20051;-72
2023/05/17 05:54:47;;;;;;;18.17;4.60;;;;;;;9.77;74.93;101373.91;5083912;28;20044;-72
2023/05/17 05:57:14;;;;;;;11.73;4.07;;;;;;;9.76;75.35;101367.81;5068701;28;20208;-72
2023/05/17 05:59:42;;;;;;;14.85;4.45;;;;;;;9.68;75.38;101363.78;5080350;28;20054;-70
2023/05/17 06:02:11;;;;;;;15.20;4.65;;;;;;;9.70;74.92;101378.59;5086023;28;20093;-70
2023/05/17 06:04:40;;;;;;;18.15;4.47;;;;;;;9.74;73.63;101371.44;5055066;28;20047;-69
2023/05/17 06:07:13;;;;;;;16.30;4.50;;;;;;;9.77;73.56;101369.53;5084892;28;20051;-70
2023/05/17 06:09:41;;;;;;;17.42;4.50;;;;;;;9.77;72.96;101381.81;5083783;28;20156;-71
2023/05/17 06:12:09;;;;;;;23.00;4.70;;;;;;;9.82;72.46;101391.22;5079628;28;20134;-69
2023/05/17 06:14:38;;;;;;;16.08;4.35;;;;;;;9.89;70.24;101391.78;5077893;28;20046;-71
2023/05/17 06:17:06;;;;;;;15.18;3.88;;;;;;;9.96;68.93;101385.34;5065962;28;20041;-69
2023/05/17 06:19:33;;;;;;;15.25;4.45;;;;;;;9.90;68.70;101377.72;5081521;28;20964;-71
2023/05/17 06:22:01;;;;;;;23.92;4.63;;;;;;;9.76;68.23;101386.22;5050887;28;20090;-71
2023/05/17 06:24:29;;;;;;;18.73;3.92;;;;;;;9.62;67.04;101389.44;5085394;28;20142;-71
2023/05/17 06:26:56;;;;;;;14.82;3.83;;;;;;;9.54;65.91;101399.41;5080379;28;20051;-71
2023/05/17 06:29:24;;;;;;;16.10;4.72;;;;;;;9.61;66.59;101400.03;5078100;28;20534;-71
2023/05/17 06:31:55;;;;;;;12.88;3.53;;;;;;;9.77;66.52;101398.47;5084873;28;20048;-72
2023/05/17 06:34:23;;;;;;;17.48;3.85;;;;;;;10.08;64.78;101405.84;5085582;28;20404;-72
2023/05/17 06:36:51;;;;;;;16.52;3.65;;;;;;;10.26;64.94;101400.72;5076254;28;20052;-72
2023/05/17 06:39:18;;;;;;;24.58;4.32;;;;;;;10.24;63.71;101405.16;5072251;28;20112;-72
2023/05/17 06:41:46;;;;;;;11.75;3.58;;;;;;;10.00;63.89;101402.72;5069886;28;20063;-72
2023/05/17 06:44:14;;;;;;;15.25;3.65;;;;;;;9.85;63.96;101398.97;5052322;28;20047;-70
2023/05/17 06:46:41;;;;;;;19.10;4.55;;;;;;;9.76;64.15;101404.63;5077099;28;20059;-70
2023/05/17 06:49:09;;;;;;;20.17;3.92;;;;;;;9.76;64.63;101395.88;5074968;28;20052;-71
2023/05/17 06:51:37;;;;;;;17.95;4.00;;;;;;;9.77;64.29;101400.22;5081343;28;20064;-71
2023/05/17 06:54:05;;;;;;;16.60;3.97;;;;;;;9.96;64.30;101403.78;5049699;28;20036;-71
2023/05/17 06:56:33;;;;;;;19.50;4.13;;;;;;;10.19;62.93;101413.28;5058925;28;20055;-72
2023/05/17 06:59:03;;;;;;;19.70;3.38;;;;;;;10.40;61.40;101403.56;5081250;28;20048;-72
2023/05/17 07:01:30;;;;;;;24.35;3.13;;;;;;;10.57;60.43;101408.06;5084459;28;20044;-72
2023/05/17 07:03:58;;;;;;;14.75;3.25;;;;;;;10.60;58.45;101403.50;5071104;28;20503;-72
2023/05/17 07:06:26;;;;;;;18.73;3.20;;;;;;;10.61;57.37;101401.72;5083842;28;20070;-72
2023/05/17 07:08:54;;;;;;;11.35;3.13;;;;;;;10.64;56.63;101425.28;5065832;28;20055;-70
2023/05/17 07:11:22;;;;;;;17.95;2.95;;;;;;;10.52;56.08;101424.06;5084914;28;20044;-71
2023/05/17 07:13:50;;;;;;;12.43;2.65;;;;;;;10.34;57.33;101424.91;5079581;28;20425;-71
2023/05/17 07:16:20;;;;;;;11.18;3.13;;;;;;;10.39;56.02;101418.50;5074193;28;20046;-71
2023/05/17 07:18:48;;;;;;;27.92;3.47;;;;;;;10.45;55.66;101422.66;5078340;28;20127;-71
2023/05/17 07:21:16;;;;;;;9.30;2.80;;;;;;;10.51;55.95;101419.75;5097875;28;20048;-71
2023/05/17 07:23:44;;;;;;;14.48;2.95;;;;;;;10.64;55.65;101414.75;5080543;28;20707;-71
2023/05/17 07:26:12;;;;;;;15.82;2.80;;;;;;;10.67;55.29;101419.00;5075365;28;20052;-71
2023/05/17 07:28:40;;;;;;;11.35;3.13;;;;;;;10.81;54.87;101420.09;5082679;28;20040;-71
2023/05/17 07:31:10;;;;;;;21.52;3.95;;;;;;;11.09;53.38;101422.25;5077617;28;20046;-71
2023/05/17 07:33:38;;;;;;;14.98;3.58;;;;;;;11.36;53.34;101435.03;5063331;28;20048;-71
2023/05/17 07:36:06;;;;;;;14.25;3.20;;;;;;;11.50;53.38;101423.78;5062297;28;20048;-71
2023/05/17 07:38:34;;;;;;;11.05;2.78;;;;;;;11.76;52.73;101425.13;5081913;28;20043;-70
2023/05/17 07:41:02;;;;;;;12.07;3.15;;;;;;;11.95;52.63;101431.19;5066998;28;20071;-71
2023/05/17 07:43:31;;;;;;;9.15;2.80;;;;;;;12.22;52.85;101441.22;5078693;28;20040;-71
2023/05/17 07:46:21;;;;;;;18.10;4.05;;;;;;;12.47;51.27;101438.13;5063468;28;20047;-71
2023/05/17 07:48:50;;;;;;;10.98;2.83;;;;;;;12.06;52.26;101457.00;5081142;28;20061;-71
2023/05/17 07:52:10;;;;;;;12.05;3.25;;;;;;;11.70;54.28;101463.19;5080926;28;20055;-71
2023/05/17 07:55:04;;;;;;;15.75;3.35;;;;;;;11.14;55.90;101472.97;5080311;28;20051;-71
2023/05/17 07:57:32;;;;;;;17.90;3.47;;;;;;;10.99;56.11;101468.44;5076557;28;20090;-71
2023/05/17 07:59:59;;;;;;;14.88;3.72;;;;;;;10.98;56.39;101468.47;5065192;28;20060;-71
2023/05/17 08:02:27;;;;;;;18.33;2.95;;;;;;;11.10;55.86;101479.31;5082219;28;20052;-71
2023/05/17 08:04:55;;;;;;;12.77;3.20;;;;;;;11.22;54.82;101477.88;5083108;28;20123;-72
2023/05/17 08:07:23;;;;;;;13.73;3.20;;;;;;;11.42;54.10;101482.16;5082465;28;20134;-72
2023/05/17 08:09:50;;;;;;;10.43;2.63;;;;;;;11.10;51.88;101478.44;5064598;28;20133;-73
2023/05/17 08:12:18;;;;;;;14.60;3.15;;;;;;;11.21;51.21;101477.94;5080425;28;20588;-72
2023/05/17 08:14:47;;;;;;;12.38;2.70;;;;;;;11.22;50.83;101493.69;5067040;28;20071;-72
2023/05/17 08:17:16;;;;;;;18.02;2.83;;;;;;;11.29;49.50;101492.44;5061947;28;20048;-71
2023/05/17 08:19:43;;;;;;;13.85;2.35;;;;;;;11.36;49.55;101493.88;5079805;28;20056;-72
2023/05/17 08:22:11;;;;;;;17.88;2.78;;;;;;;11.47;49.37;101493.34;5064080;28;20048;-73
2023/05/17 08:24:38;;;;;;;8.52;2.17;;;;;;;11.64;48.12;101498.66;5066888;28;20087;-72
2023/05/17 08:27:05;;;;;;;9.63;2.95;;;;;;;11.69;47.41;101477.31;5081693;28;20064;-71
2023/05/17 08:29:33;;;;;;;14.85;3.50;;;;;;;11.79;47.34;101493.53;5080526;28;20124;-71
2023/05/17 08:32:01;;;;;;;10.73;2.22;;;;;;;12.02;48.02;101489.75;5077823;28;20071;-71
2023/05/17 08:34:28;;;;;;;14.45;2.47;;;;;;;12.25;48.20;101485.94;5078404;28;20056;-72
2023/05/17 08:36:56;;;;;;;13.80;3.17;;;;;;;12.41;46.62;101497.41;5079088;28;20201;-71
2023/05/17 08:39:24;;;;;;;12.73;2.83;;;;;;;12.47;47.34;101493.59;5079511;28;20091;-72
2023/05/17 08:41:52;;;;;;;14.10;3.22;;;;;;;12.48;47.44;101490.88;5084157;28;20052;-72
2023/05/17 08:44:22;;;;;;;14.63;3.67;;;;;;;12.18;48.51;101495.13;5065206;28;20056;-71
2023/05/17 08:46:52;;;;;;;16.45;3.50;;;;;;;11.95;48.93;101502.44;5046962;28;20043;-70
2023/05/17 08:49:24;;;;;;;18.85;4.13;;;;;;;11.97;49.06;101510.25;5084471;28;20059;-71
2023/05/17 08:51:53;;;;;;;14.32;2.70;;;;;;;11.86;49.29;101514.28;5078300;28;20048;-71
2023/05/17 08:54:21;;;;;;;15.15;3.10;;;;;;;11.79;49.02;101509.38;5084970;28;20047;-71
2023/05/17 08:56:53;;;;;;;17.20;2.85;;;;;;;11.87;48.36;101509.88;5048559;28;20522;-72
2023/05/17 08:59:20;;;;;;;14.90;3.28;;;;;;;12.03;47.70;101500.25;5038906;28;20051;-71
2023/05/17 09:01:50;;;;;;;17.38;3.17;;;;;;;12.23;47.90;101496.59;5076326;28;20621;-72
2023/05/17 09:04:18;;;;;;;10.48;2.28;;;;;;;12.36;46.94;101491.53;5063994;28;20052;-72
2023/05/17 09:06:46;;;;;;;10.18;2.97;;;;;;;12.33;45.78;101505.72;5064564;28;20932;-72
2023/05/17 09:09:14;;;;;;;13.65;3.13;;;;;;;12.41;44.25;101500.06;5083414;28;20130;-72
2023/05/17 09:11:41;;;;;;;15.90;3.17;;;;;;;12.47;44.27;101505.00;5078129;28;20059;-72
2023/05/17 09:17:40;;;;;;;12.27;2.60;;;;;;;12.71;45.69;101494.09;5072039;28;20487;-72
2023/05/17 09:20:08;;;;;;;15.82;2.92;;;;;;;12.75;42.81;101495.63;5058560;28;20254;-73
2023/05/17 09:22:37;;;;;;;27.00;3.45;;;;;;;12.76;44.06;101492.03;5077819;28;20048;-72
2023/05/17 09:25:04;;;;;;;15.23;2.40;;;;;;;12.58;44.95;101491.25;5083271;28;20095;-72
2023/05/17 09:27:32;;;;;;;12.00;3.28;;;;;;;12.50;44.88;101483.72;5079250;28;20052;-72
2023/05/17 09:30:00;;;;;;;11.23;3.55;;;;;;;12.44;44.53;101494.63;5081587;28;20836;-75
2023/05/17 09:32:27;;;;;;;14.35;3.00;;;;;;;12.26;44.59;101498.22;5080334;28;20083;-72
2023/05/17 09:34:58;;;;;;;11.30;2.65;;;;;;;12.51;44.79;101500.41;5084779;28;20195;-72
2023/05/17 09:37:25;;;;;;;9.57;2.70;;;;;;;12.77;44.61;101505.16;5077983;28;20048;-72
2023/05/17 09:39:53;;;;;;;16.60;3.28;;;;;;;13.01;45.11;101508.25;5090754;28;20131;-70
2023/05/17 09:42:25;;;;;;;14.65;2.80;;;;;;;13.16;43.64;101496.00;5100850;28;20058;-71
2023/05/17 09:44:57;;;;;;;13.88;3.17;;;;;;;13.03;43.44;101501.09;5082051;28;20067;-72
2023/05/17 09:47:28;;;;;;;13.85;3.08;;;;;;;13.25;43.07;101506.09;5056913;28;20128;-73
2023/05/17 09:49:59;;;;;;;16.40;2.90;;;;;;;13.29;42.91;101507.63;5079426;28;20059;-72
2023/05/17 09:52:30;;;;;;;15.13;3.38;;;;;;;13.23;41.12;101504.44;5080179;28;20060;-72
2023/05/17 09:54:58;;;;;;;12.23;2.80;;;;;;;13.22;42.19;101510.66;5081187;28;21589;-72
2023/05/17 09:57:27;;;;;;;16.02;2.95;;;;;;;13.08;41.82;101511.41;5079866;28;20130;-72
2023/05/17 09:59:56;;;;;;;13.38;2.97;;;;;;;12.97;41.43;101509.38;5077903;28;20147;-71
2023/05/17 10:02:27;;;;;;;15.90;2.72;;;;;;;12.94;42.39;101514.81;5084975;28;20044;-72
2023/05/17 10:04:57;;;;;;;12.57;2.88;;;;;;;13.10;42.34;101507.75;5085829;28;20123;-72
2023/05/17 10:07:26;;;;;;;12.95;2.95;;;;;;;12.82;41.63;101511.03;5081391;28;20054;-72
2023/05/17 10:09:54;;;;;;;16.55;2.75;;;;;;;13.12;42.20;101508.53;5073549;28;20062;-72
2023/05/17 10:12:23;;;;;;;13.15;2.42;;;;;;;13.26;42.20;101507.78;5057544;28;20056;-71
2023/05/17 10:14:55;;;;;;;13.52;3.05;;;;;;;13.48;42.04;101512.72;5079284;28;20160;-71
2023/05/17 10:17:23;;;;;;;12.30;3.22;;;;;;;13.65;41.50;101506.47;5081336;28;20099;-71
2023/05/17 10:19:51;;;;;;;16.70;3.63;;;;;;;13.73;41.36;101504.19;5061030;28;20058;-71
2023/05/17 10:22:21;;;;;;;12.23;2.78;;;;;;;13.71;40.79;101521.13;5082942;28;20540;-71
2023/05/17 10:24:50;;;;;;;9.50;2.30;;;;;;;13.65;40.98;101520.53;5084058;28;20060;-72
2023/05/17 10:27:19;;;;;;;13.30;2.88;;;;;;;13.77;41.29;101507.53;5089695;28;20139;-72
2023/05/17 10:29:47;;;;;;;10.00;2.95;;;;;;;14.03;40.75;101512.16;5071340;28;20060;-72
2023/05/17 10:32:20;;;;;;;9.35;2.35;;;;;;;14.21;39.91;101514.66;5092214;28;20072;-72
2023/05/17 10:34:49;;;;;;;10.38;2.20;;;;;;;14.34;39.03;101511.16;5089140;28;20123;-72
2023/05/17 10:37:32;;;;;;;13.50;2.47;;;;;;;14.56;38.47;101518.69;5080419;28;20048;-72
2023/05/17 10:40:00;;;;;;;10.93;2.30;;;;;;;14.66;37.75;101519.81;5066257;28;20048;-70
2023/05/17 10:42:27;;;;;;;12.27;2.67;;;;;;;14.47;38.42;101518.38;5087003;28;20488;-71
2023/05/17 10:44:55;;;;;;;12.45;2.58;;;;;;;14.57;38.39;101527.50;5085969;28;20139;-72
2023/05/17 10:47:30;;;;;;;12.68;2.60;;;;;;;14.72;37.30;101531.00;5081004;28;20044;-72
2023/05/17 10:49:58;;;;;;;11.82;2.50;;;;;;;14.86;38.93;101530.97;5102890;27;20048;-72
2023/05/17 10:52:26;;;;;;;12.23;2.45;;;;;;;15.18;38.39;101527.16;5086967;28;20059;-72
2023/05/17 10:54:53;;;;;;;13.25;2.78;;;;;;;15.30;37.04;101530.81;5088539;28;20087;-72
2023/05/17 10:57:34;;;;;;;15.90;2.42;;;;;;;15.41;36.10;101540.75;5093118;28;20149;-72
2023/05/17 11:00:28;;;;;;;10.65;2.40;;;;;;;15.51;36.54;101543.66;5082964;28;20068;-72
2023/05/17 11:03:14;;;;;;;11.45;2.03;;;;;;;15.65;36.66;101547.16;5080073;28;20052;-80
2023/05/17 11:05:44;;;;;;;14.30;1.85;;;;;;;15.71;36.25;101537.91;5085246;28;20562;-78
2023/05/17 11:08:15;;;;;;;10.45;2.38;;;;;;;15.70;36.29;101536.22;5091022;28;20064;-78
2023/05/17 11:11:09;;;;;;;12.82;2.40;;;;;;;15.74;37.06;101542.19;5098173;28;20097;-77
2023/05/17 11:13:45;;;;;;;18.40;3.28;;;;;;;15.95;36.20;101540.78;5083084;28;20056;-77
2023/05/17 11:16:18;;;;;;;15.02;2.88;;;;;;;15.99;34.81;101531.66;5082744;28;20155;-78
2023/05/17 11:18:49;;;;;;;12.02;2.45;;;;;;;16.19;35.96;101528.47;5078949;28;20075;-78
2023/05/17 11:21:18;;;;;;;11.15;2.58;;;;;;;16.43;35.07;101530.41;5071889;28;20478;-78
2023/05/17 11:23:46;;;;;;;10.10;2.00;;;;;;;16.21;35.04;101533.72;5052588;28;20748;-79
2023/05/17 11:26:37;;;;;;;9.73;2.25;;;;;;;15.92;35.03;101533.84;5071258;28;20040;-78
2023/05/17 11:29:10;;;;;;;11.25;2.05;;;;;;;16.07;35.68;101537.25;5082074;28;20079;-78
2023/05/17 11:31:43;;;;;;;13.18;2.72;;;;;;;16.25;34.80;101539.63;5058451;28;20464;-75
2023/05/17 11:34:11;;;;;;;14.27;2.30;;;;;;;16.12;34.18;101543.16;5085746;28;20515;-74
2023/05/17 11:36:50;;;;;;;8.38;2.75;;;;;;;16.01;34.89;101528.88;5087990;28;20048;-74